ADDS METAR Data INFO
IDs: Format: Raw Decoded Include TAF

Data at: 0355 UTC 19 Feb 2018

K1A6 190335Z AUTO 00000KT 10SM BKN040 OVC047 08/05 A3022 RMK AO2 T00810050
K1A6 190315Z AUTO 00000KT 10SM BKN044 BKN120 08/05 A3022 RMK AO2 T00790047
K1A6 190255Z AUTO 00000KT 10SM SCT043 BKN049 BKN065 08/05 A3023 RMK AO2 T00770047
K1A6 190235Z AUTO 00000KT 10SM BKN065 08/05 A3023 RMK AO2 T00800050
K1A6 190215Z AUTO 00000KT 10SM SCT065 09/04 A3023 RMK AO2 T00850044
K1A6 190155Z AUTO 00000KT 10SM CLR 08/05 A3023 RMK AO2 T00770046
K1A6 190135Z AUTO 00000KT 10SM CLR 08/05 A3023 RMK AO2 T00760047
K1A6 190115Z AUTO 00000KT 10SM CLR 08/05 A3022 RMK AO2 T00770046
K1A6 190055Z AUTO 00000KT 10SM CLR 09/04 A3022 RMK AO2 T00900039
K1A6 190035Z AUTO 24003KT 10SM CLR 09/04 A3022 RMK AO2 T00870039
K1A6 190015Z AUTO 00000KT 10SM CLR 09/04 A3023 RMK AO2 T00860040
K1A6 182355Z AUTO 00000KT 10SM CLR 10/04 A3022 RMK AO2 T00980036 10143 20098
K1A6 182335Z AUTO 00000KT 10SM CLR 10/04 A3022 RMK AO2 T01010036
K1A6 182315Z AUTO 00000KT 10SM CLR 11/03 A3022 RMK AO2 T01140029
K1A6 182255Z AUTO 00000KT 10SM CLR 13/02 A3022 RMK AO2 T01280022
K1A6 182235Z AUTO 14003KT 10SM CLR 14/00 A3021 RMK AO2 T01360002
K1A6 182215Z AUTO 00000KT 10SM CLR 14/01 A3021 RMK AO2 T01390011
K1A6 182155Z AUTO 13003KT 10SM CLR 14/01 A3022 RMK AO2 T01400013
K1A6 182135Z AUTO 00000KT 10SM CLR 14/01 A3022 RMK AO2 T01430013
K1A6 182115Z AUTO 12003KT 10SM CLR 14/01 A3023 RMK AO2 T01400009
K1A6 182055Z AUTO 00000KT 10SM CLR 14/00 A3023 RMK AO2 T01370003
K1A6 182035Z AUTO 10003KT 10SM CLR 13/01 A3023 RMK AO2 T01340012
K1A6 182015Z AUTO 07004KT 10SM CLR 13/01 A3024 RMK AO2 T01340011
K1A6 181955Z AUTO 09003KT 10SM CLR 13/00 A3025 RMK AO2 T01310001
K1A6 181935Z AUTO 13004KT 10SM CLR 14/01 A3025 RMK AO2 T01350005
K1A6 181915Z AUTO 16007KT 10SM CLR 13/00 A3026 RMK AO2 T01270003
K1A6 181855Z AUTO 14005KT 10SM CLR 13/00 A3027 RMK AO2 T01260001
K1A6 181835Z AUTO 00000KT 10SM CLR 12/01 A3028 RMK AO2 T01200013
K1A6 181815Z AUTO 00000KT 10SM CLR 12/01 A3029 RMK AO2 T01160005
K1A6 181755Z AUTO 12003KT 10SM CLR 11/01 A3030 RMK AO2 T01140006 10114 20003
K1A6 181735Z AUTO 18005KT 10SM CLR 11/01 A3031 RMK AO2 T01050009
K1A6 181715Z AUTO 06005KT 10SM CLR 10/01 A3032 RMK AO2 T00990014
K1A6 181655Z AUTO 00000KT 10SM CLR 10/01 A3033 RMK AO2 T00950006
K1A6 181635Z AUTO 00000KT 10SM CLR 09/01 A3034 RMK AO2 T00860011
K1A6 181615Z AUTO 00000KT 10SM CLR 08/01 A3035 RMK AO2 T00790005
K1A6 181555Z AUTO 00000KT 10SM CLR 07/02 A3036 RMK AO2 T00710015
K1A6 181535Z AUTO 00000KT 10SM CLR 07/01 A3036 RMK AO2 T00670013
K1A6 181515Z AUTO 00000KT 10SM SCT021 06/01 A3036 RMK AO2 T00620011
K1A6 181455Z AUTO 00000KT 10SM SCT017 SCT022 06/01 A3036 RMK AO2 T00560010
K1A6 181435Z AUTO 00000KT 10SM SCT017 05/02 A3036 RMK AO2 T00490018
K1A6 181415Z AUTO 00000KT 10SM SCT021 04/02 A3037 RMK AO2 T00360024
K1A6 181355Z AUTO 00000KT 10SM SCT021 02/02 A3036 RMK AO2 T00190019
K1A6 181335Z AUTO 00000KT 10SM SCT021 01/01 A3036 RMK AO2 T00070007
K1A6 181315Z AUTO 00000KT 10SM SCT023 01/01 A3036 RMK AO2 T00050005
K1A6 181255Z AUTO 00000KT 7SM CLR 00/00 A3034 RMK AO2 T00030003
K1A6 181235Z AUTO 00000KT 10SM SCT024 01/01 A3033 RMK AO2 T00070007
K1A6 181215Z AUTO 00000KT 10SM SCT024 01/01 A3032 RMK AO2 T00110011
K1A6 181155Z AUTO 00000KT 10SM OVC026 01/01 A3031 RMK AO2 70109 T00080008 10075 20008
K1A6 181135Z AUTO 00000KT 10SM BKN026 01/01 A3031 RMK AO2 T00130013
K1A6 181115Z AUTO 00000KT 10SM CLR 01/01 A3030 RMK AO2 T00140014
K1A6 181055Z AUTO 00000KT 10SM CLR 02/02 A3030 RMK AO2 T00160016
K1A6 181035Z AUTO 00000KT 10SM CLR 02/02 A3029 RMK AO2 T00230017
K1A6 181015Z AUTO 00000KT 10SM SCT024 03/02 A3029 RMK AO2 T00290016
K1A6 180955Z AUTO 03003KT 10SM OVC024 04/02 A3028 RMK AO2 T00400017
K1A6 180935Z AUTO 00000KT 10SM OVC026 05/02 A3028 RMK AO2 T00450021
K1A6 180915Z AUTO 02004KT 10SM BKN026 05/02 A3027 RMK AO2 T00500015
K1A6 180855Z AUTO 32006KT 10SM CLR 05/02 A3027 RMK AO2 T00510015
K1A6 180835Z AUTO 32008KT 10SM BKN030 05/02 A3027 RMK AO2 T00530019
K1A6 180815Z AUTO 35007KT 10SM OVC026 06/02 A3027 RMK AO2 T00600023
K1A6 180755Z AUTO 36006KT 10SM OVC024 07/03 A3026 RMK AO2 T00650030
K1A6 180735Z AUTO 33003KT 10SM OVC029 07/03 A3026 RMK AO2 T00680031
K1A6 180715Z AUTO 33007KT 10SM OVC027 07/03 A3024 RMK AO2 T00710034
K1A6 180655Z AUTO 30004KT 10SM SCT029 BKN036 07/04 A3023 RMK AO2 T00690039
K1A6 180635Z AUTO 30005KT 10SM BKN036 07/04 A3023 RMK AO2 T00700040
K1A6 180615Z AUTO 33005KT 10SM SCT022 BKN028 OVC034 07/05 A3022 RMK AO2 T00740046
K1A6 180555Z AUTO 33011G14KT 10SM BKN022 OVC029 08/05 A3022 RMK AO2 60001 T00760053 10094 20075 400940041
K1A6 180535Z AUTO 33004KT 10SM SCT015 BKN024 OVC029 08/06 A3021 RMK AO2 T00770060
K1A6 180515Z AUTO 32006KT 7SM -DZ OVC015 08/06 A3020 RMK AO2 T00780064
K1A6 180455Z AUTO 33007KT 10SM OVC017 08/07 A3020 RMK AO2 P0001 T00820066
K1A6 180435Z AUTO 32006KT 10SM OVC017 09/07 A3019 RMK AO2 P0001 T00850067
K1A6 180415Z AUTO 00000KT 10SM OVC017 09/07 A3018 RMK AO2 P0001 T00860071
K1A6 180355Z AUTO 31006KT 10SM OVC017 09/07 A3018 RMK AO2 T00890072
K1A6 180335Z AUTO 29003KT 10SM OVC017 09/08 A3017 RMK AO2 T00900075
K1A6 180315Z AUTO 30003KT 10SM OVC017 09/08 A3016 RMK AO2 T00900077
K1A6 180255Z AUTO 26003KT 10SM OVC017 09/08 A3016 RMK AO2 T00880082
K1A6 180235Z AUTO 00000KT 10SM OVC017 09/08 A3015 RMK AO2 T00900079
K1A6 180215Z AUTO 00000KT 10SM OVC017 09/08 A3014 RMK AO2 T00860081
K1A6 180155Z AUTO 00000KT 10SM OVC019 08/08 A3013 RMK AO2 T00820081
K1A6 180135Z AUTO 00000KT 10SM OVC019 09/08 A3013 RMK AO2 T00870080
K1A6 180115Z AUTO 00000KT 10SM OVC021 08/08 A3011 RMK AO2 T00830080
K1A6 180055Z AUTO 00000KT 10SM BKN021 OVC075 09/08 A3010 RMK AO2 T00870078
K1A6 180035Z AUTO 00000KT 10SM SCT021 BKN080 OVC095 09/08 A3009 RMK AO2 T00880077
K1A6 180015Z AUTO 29003KT 10SM BKN070 OVC095 09/08 A3007 RMK AO2 T00920077
K1A6 172355Z AUTO 10003KT 10SM SCT022 SCT055 OVC070 08/08 A3006 RMK AO2 60068 T00830080 10085 20056
K1A6 172335Z AUTO 04003KT 10SM SCT022 OVC070 08/08 A3005 RMK AO2 T00770077
K1A6 172315Z AUTO 00000KT 10SM -DZ BKN022 BKN050 OVC090 07/07 A3005 RMK AO2 T00670067
K1A6 172255Z AUTO 00000KT 7SM RA SCT022 BKN050 OVC090 06/06 A3004 RMK AO2 P0007 T00610061
K1A6 172235Z AUTO 05003KT 10SM -RA BKN024 BKN039 OVC065 06/06 A3005 RMK AO2 P0005 T00600060
K1A6 172215Z AUTO 00000KT 5SM RA SCT024 BKN044 OVC080 06/06 A3005 RMK AO2 P0003 T00580058
K1A6 172155Z AUTO 00000KT 5SM RA SCT026 OVC039 06/06 A3004 RMK AO2 P0007 T00570057
K1A6 172135Z AUTO 00000KT 10SM -RA SCT029 BKN041 OVC047 06/05 A3005 RMK AO2 P0004 T00560054
K1A6 172115Z AUTO 00000KT 7SM RA SCT011 SCT017 OVC045 06/05 A3005 RMK AO2 P0002 T00560052
K1A6 172055Z AUTO 00000KT 5SM RA SCT011 BKN047 OVC060 06/06 A3005 RMK AO2 P0013 60054 T00580056
K1A6 172035Z AUTO 00000KT 4SM -RA SCT015 BKN047 OVC060 06/05 A3003 RMK AO2 P0009 T00570053
K1A6 172015Z AUTO 00000KT 5SM RA BKN015 OVC047 06/05 A3006 RMK AO2 P0004 T00620053
K1A6 171955Z AUTO 00000KT 5SM RA SCT009 BKN013 OVC038 07/07 A3007 RMK AO2 P0016 T00670067
K1A6 171935Z AUTO 00000KT 2SM UP BKN014 BKN020 OVC030 07/07 A3006 RMK AO2 P0012 T00690069
K1A6 171915Z AUTO 00000KT 5SM +RA BKN014 BKN018 OVC041 07/07 A3006 RMK AO2 P0003 T00680068
K1A6 171855Z AUTO 00000KT 5SM RA SCT012 BKN019 OVC040 07/07 A3003 RMK AO2 P0024 T00680068
K1A6 171835Z AUTO 09003KT 1 1/4SM UP SCT021 OVC033 07/07 A3003 RMK AO2 P0021 T00680068
K1A6 171815Z AUTO 00000KT 1 1/4SM UP SCT013 BKN023 OVC037 07/07 A3004 RMK AO2 P0010 T00690069
K1A6 171755Z AUTO 28003G08KT 1SM SN BKN008 OVC013 07/07 A3004 RMK AO2 P0025 60038 T00670067 10067 20050
K1A6 171735Z AUTO 29003KT 3SM RA OVC008 06/06 A2998 RMK AO2 P0006 T00620062
K1A6 171715Z AUTO 00000KT 4SM +RA OVC008 06/06 A2998 RMK AO2 P0001 T00610061
K1A6 171655Z AUTO 22003KT 3SM +RA OVC008 06/06 A3000 RMK AO2 P0005 T00600060
K1A6 171635Z AUTO 26003KT 4SM RA BKN008 OVC017 06/06 A3003 RMK AO2 P0003 T00580058
K1A6 171615Z AUTO 00000KT 3SM -RA SCT010 BKN030 OVC034 06/05 A3005 RMK AO2 P0001 T00550053